Thunder radar more information blitzortung!


Radar de pluja more information rain snow radar


Visita la nostra xarxa de llocs de meteo:

Template documentation
and downloads

And another site



No particular awareness of the weather is required.    There are no Weather-warnings

Pagina Historial Weather Underground text

Diari Resum February 15, 2016 Unitats:  Mètric    Imperial   Tant
« Previous Dia
SegĂźent Dia »
Diari Setmana Mensual Anual Personalitzada
  Maxima: Minima: Media:
Temperatura: 17.1 °C 5.7 °C 11.9 °C
Punt de rosada: 4.7 °C -9.7 °C -1.1 °C
Humitat: 55 % 26 % 41 %
Wind Speed: 20.4 km/h 0.0 km/h 5.9 km/h
RĂ fegues de vent: 20.4 km/h - -
Vent:- - SSE
Pression baro: 1017.8 hPa 1005.0 hPa -
Precipitacions: 0.0 mm    
Historical Graphs
 
 
Dades de taula per February 15, 2016
Temps Temperatura Punt de rosada Pression baro Vent Wind Speed RĂ fegues de vent Humitat Rainfall Rate (Hourly)
11:44 10.9 °C 2.2 °C 1005.0 hPa ESE 7.4 km/h 7.4 km/h 55 % 0.0 mm
11:49 11.0 °C 2.3 °C 1006.0 hPa SE 4.2 km/h 4.2 km/h 55 % 0.0 mm
11:54 11.5 °C 2.5 °C 1006.0 hPa ESE 6.4 km/h 6.4 km/h 54 % 0.0 mm
11:59 11.7 °C 2.7 °C 1006.0 hPa ENE 3.7 km/h 3.7 km/h 54 % 0.0 mm
12:09 11.6 °C 2.6 °C 1006.0 hPa NNE 7.4 km/h 7.4 km/h 54 % 0.0 mm
12:14 11.5 °C 2.2 °C 1006.0 hPa NW 3.2 km/h 3.2 km/h 53 % 0.0 mm
12:19 11.8 °C 2.8 °C 1006.0 hPa ENE 4.2 km/h 4.2 km/h 54 % 0.0 mm
12:24 12.0 °C 2.7 °C 1006.0 hPa ENE 5.6 km/h 5.6 km/h 53 % 0.0 mm
12:29 12.4 °C 3.1 °C 1006.0 hPa East 5.3 km/h 5.3 km/h 53 % 0.0 mm
12:34 12.6 °C 3.3 °C 1006.0 hPa ENE 3.9 km/h 3.9 km/h 53 % 0.0 mm
12:39 12.6 °C 3.3 °C 1006.0 hPa NE 5.6 km/h 5.6 km/h 53 % 0.0 mm
12:44 12.7 °C 3.3 °C 1006.0 hPa ENE 3.7 km/h 3.7 km/h 53 % 0.0 mm
12:49 12.8 °C 3.2 °C 1006.0 hPa NNE 4.7 km/h 4.7 km/h 52 % 0.0 mm
12:54 12.8 °C 3.2 °C 1006.0 hPa East 7.4 km/h 7.4 km/h 52 % 0.0 mm
12:59 13.0 °C 3.4 °C 1006.0 hPa SSE 5.6 km/h 5.6 km/h 52 % 0.0 mm
13:04 13.3 °C 3.7 °C 1005.0 hPa ESE 5.6 km/h 5.6 km/h 52 % 0.0 mm
13:09 13.4 °C 3.4 °C 1005.0 hPa ENE 3.7 km/h 3.9 km/h 51 % 0.0 mm
13:19 13.9 °C 3.9 °C 1006.0 hPa South 5.6 km/h 5.6 km/h 51 % 0.0 mm
13:29 14.4 °C 4.4 °C 1006.0 hPa WSW 4.2 km/h 4.2 km/h 51 % 0.0 mm
13:34 14.7 °C 4.7 °C 1006.0 hPa SW 3.7 km/h 3.7 km/h 51 % 0.0 mm
13:39 14.8 °C 4.2 °C 1006.0 hPa SW 3.9 km/h 3.9 km/h 49 % 0.0 mm
13:44 14.8 °C 4.2 °C 1006.0 hPa SW 9.3 km/h 9.3 km/h 49 % 0.0 mm
13:49 15.4 °C 4.4 °C 1006.0 hPa West 7.4 km/h 7.4 km/h 48 % 0.0 mm
13:54 15.4 °C 4.4 °C 1006.0 hPa WSW 7.4 km/h 7.4 km/h 48 % 0.0 mm
13:59 15.6 °C 3.7 °C 1006.0 hPa SW 14.8 km/h 14.8 km/h 45 % 0.0 mm
14:04 15.4 °C 2.9 °C 1007.0 hPa WNW 9.3 km/h 9.3 km/h 43 % 0.0 mm
14:09 15.7 °C 3.2 °C 1007.0 hPa WSW 6.4 km/h 6.4 km/h 43 % 0.0 mm
14:14 15.6 °C 2.7 °C 1007.0 hPa WSW 11.1 km/h 11.1 km/h 42 % 0.0 mm
14:19 15.6 °C 2.4 °C 1006.0 hPa NW 9.3 km/h 9.3 km/h 41 % 0.0 mm
14:24 15.6 °C 2.4 °C 1006.0 hPa NNW 5.6 km/h 5.6 km/h 41 % 0.0 mm
14:34 15.6 °C 2.4 °C 1007.0 hPa North 3.7 km/h 3.7 km/h 41 % 0.0 mm
14:39 15.6 °C 2.4 °C 1007.0 hPa WSW 5.6 km/h 5.6 km/h 41 % 0.0 mm
14:44 15.6 °C 2.4 °C 1007.0 hPa West 9.3 km/h 9.3 km/h 41 % 0.0 mm
14:49 15.6 °C 2.4 °C 1007.0 hPa SW 7.4 km/h 7.4 km/h 41 % 0.0 mm
14:54 16.7 °C 1.9 °C 1007.0 hPa WSW 9.3 km/h 9.3 km/h 37 % 0.0 mm
14:59 16.6 °C 1.1 °C 1007.0 hPa NW 9.3 km/h 9.3 km/h 35 % 0.0 mm
15:04 16.7 °C 1.2 °C 1007.0 hPa NNE 7.4 km/h 7.4 km/h 35 % 0.0 mm
15:09 16.7 °C 1.2 °C 1007.0 hPa WSW 7.4 km/h 7.4 km/h 35 % 0.0 mm
15:19 16.7 °C 1.2 °C 1008.0 hPa SW 5.6 km/h 5.6 km/h 35 % 0.0 mm
15:24 16.6 °C 0.2 °C 1008.0 hPa WNW 9.3 km/h 9.3 km/h 33 % 0.0 mm
15:29 16.4 °C 0.1 °C 1008.0 hPa SSW 13.0 km/h 13.0 km/h 33 % 0.0 mm
15:34 16.7 °C 0.7 °C 1008.0 hPa West 3.7 km/h 3.7 km/h 34 % 0.0 mm
15:39 16.6 °C 0.7 °C 1008.0 hPa SW 5.8 km/h 5.8 km/h 34 % 0.0 mm
15:44 16.5 °C 0.2 °C 1008.0 hPa WSW 9.3 km/h 9.3 km/h 33 % 0.0 mm
15:54 17.0 °C 0.6 °C 1008.0 hPa NNE 9.3 km/h 9.3 km/h 33 % 0.0 mm
15:59 16.9 °C 0.5 °C 1008.0 hPa WSW 9.3 km/h 9.3 km/h 33 % 0.0 mm
16:04 17.1 °C 0.7 °C 1008.0 hPa WSW 7.4 km/h 7.4 km/h 33 % 0.0 mm
16:09 17.0 °C 0.2 °C 1008.0 hPa SSW 5.6 km/h 5.6 km/h 32 % 0.0 mm
16:14 17.0 °C -0.3 °C 1008.0 hPa West 5.6 km/h 5.6 km/h 31 % 0.0 mm
16:19 17.1 °C 0.3 °C 1008.0 hPa WSW 5.8 km/h 5.8 km/h 32 % 0.0 mm
16:24 16.8 °C -1.3 °C 1008.0 hPa WSW 9.3 km/h 9.3 km/h 29 % 0.0 mm
16:29 16.8 °C -1.3 °C 1008.0 hPa WSW 7.4 km/h 7.4 km/h 29 % 0.0 mm
16:34 16.8 °C -1.8 °C 1008.0 hPa ESE 9.3 km/h 9.3 km/h 28 % 0.0 mm
16:39 17.0 °C -1.2 °C 1008.0 hPa NNE 7.4 km/h 7.4 km/h 29 % 0.0 mm
16:44 17.1 °C -1.1 °C 1008.0 hPa WNW 7.4 km/h 7.4 km/h 29 % 0.0 mm
16:49 16.9 °C -2.2 °C 1008.0 hPa WSW 7.4 km/h 7.4 km/h 27 % 0.0 mm
16:54 17.0 °C -2.2 °C 1008.0 hPa SW 9.3 km/h 9.3 km/h 27 % 0.0 mm
16:59 17.0 °C -2.2 °C 1008.0 hPa WSW 10.3 km/h 10.3 km/h 27 % 0.0 mm
17:04 16.8 °C -2.8 °C 1009.0 hPa SSW 5.6 km/h 5.6 km/h 26 % 0.0 mm
17:09 16.8 °C -2.8 °C 1009.0 hPa NNE 5.6 km/h 5.6 km/h 26 % 0.0 mm
17:14 15.5 °C -1.6 °C 1009.0 hPa ENE 12.2 km/h 12.2 km/h 31 % 0.0 mm
17:19 14.1 °C -1.9 °C 1010.0 hPa NE 7.4 km/h 7.4 km/h 33 % 0.0 mm
17:24 13.8 °C -1.4 °C 1010.0 hPa ENE 17.2 km/h 17.2 km/h 35 % 0.0 mm
17:29 13.1 °C -0.9 °C 1010.0 hPa NE 20.4 km/h 20.4 km/h 38 % 0.0 mm
17:39 12.3 °C -0.6 °C 1010.0 hPa ENE 13.7 km/h 13.7 km/h 41 % 0.0 mm
17:44 12.0 °C -0.2 °C 1010.0 hPa NE 9.3 km/h 9.3 km/h 43 % 0.0 mm
17:49 11.7 °C -0.5 °C 1010.7 hPa East 14.8 km/h 14.8 km/h 43 % 0.0 mm
17:54 11.6 °C 0.1 °C 1010.7 hPa ESE 9.3 km/h 9.3 km/h 45 % 0.0 mm
17:59 11.4 °C 0.2 °C 1010.7 hPa NE 9.5 km/h 9.5 km/h 46 % 0.0 mm
18:04 11.3 °C 0.1 °C 1011.7 hPa ESE 11.1 km/h 11.1 km/h 46 % 0.0 mm
18:09 11.2 °C -0.3 °C 1011.7 hPa ESE 11.1 km/h 11.1 km/h 45 % 0.0 mm
18:14 11.1 °C -0.1 °C 1011.7 hPa ENE 7.4 km/h 7.4 km/h 46 % 0.0 mm
18:19 11.0 °C -0.2 °C 1011.7 hPa East 5.6 km/h 5.6 km/h 46 % 0.0 mm
18:24 10.9 °C -0.3 °C 1011.7 hPa East 5.6 km/h 5.6 km/h 46 % 0.0 mm
18:29 10.8 °C -0.4 °C 1011.7 hPa ENE 7.4 km/h 7.4 km/h 46 % 0.0 mm
18:34 10.8 °C -0.1 °C 1011.7 hPa East 5.6 km/h 5.6 km/h 47 % 0.0 mm
18:39 10.7 °C -0.2 °C 1011.7 hPa NE 1.9 km/h 1.9 km/h 47 % 0.0 mm
18:44 10.5 °C -0.1 °C 1011.7 hPa NNW 5.6 km/h 5.6 km/h 48 % 0.0 mm
18:49 10.5 °C -0.1 °C 1012.8 hPa ESE 4.7 km/h 4.7 km/h 48 % 0.0 mm
18:54 10.4 °C 0.1 °C 1012.8 hPa SW 2.3 km/h 2.3 km/h 49 % 0.0 mm
18:59 10.3 °C 0.1 °C 1012.8 hPa NNW 3.7 km/h 3.7 km/h 49 % 0.0 mm
19:09 10.1 °C 0.1 °C 1013.8 hPa ENE 3.7 km/h 3.7 km/h 50 % 0.0 mm
19:14 10.0 °C 0.1 °C 1013.8 hPa WNW 1.9 km/h 1.9 km/h 50 % 0.0 mm
19:19 9.8 °C -0.2 °C 1013.8 hPa Calm     50 % 0.0 mm
19:24 9.8 °C -0.2 °C 1013.8 hPa ENE 1.9 km/h 2.3 km/h 50 % 0.0 mm
19:29 9.6 °C -0.1 °C 1013.8 hPa NNW 3.7 km/h 3.7 km/h 51 % 0.0 mm
19:39 9.6 °C -0.1 °C 1013.8 hPa NNE 5.6 km/h 5.6 km/h 51 % 0.0 mm
19:44 9.7 °C -0.2 °C 1013.8 hPa North 3.7 km/h 4.2 km/h 50 % 0.0 mm
19:49 9.6 °C -0.3 °C 1013.8 hPa NE 3.7 km/h 3.7 km/h 50 % 0.0 mm
19:54 9.5 °C -0.2 °C 1013.8 hPa NE 2.6 km/h 2.6 km/h 51 % 0.0 mm
19:59 9.4 °C -0.2 °C 1013.8 hPa NNE 2.3 km/h 2.6 km/h 51 % 0.0 mm
20:04 9.3 °C -0.3 °C 1013.8 hPa NE 3.7 km/h 3.7 km/h 51 % 0.0 mm
20:09 9.2 °C -0.7 °C 1013.8 hPa North 3.7 km/h 3.7 km/h 50 % 0.0 mm
20:14 9.2 °C -1.6 °C 1013.8 hPa NE 1.9 km/h 1.9 km/h 47 % 0.0 mm
20:19 9.2 °C -2.1 °C 1014.8 hPa NNE 5.6 km/h 5.6 km/h 45 % 0.0 mm
20:24 9.1 °C -2.6 °C 1014.8 hPa WNW 2.3 km/h   44 % 0.0 mm
20:29 9.0 °C -3.2 °C 1014.8 hPa East 1.9 km/h   42 % 0.0 mm
20:34 8.9 °C -3.3 °C 1014.8 hPa NE 1.9 km/h   42 % 0.0 mm
20:39 9.0 °C -3.6 °C 1014.8 hPa WNW 3.7 km/h 3.7 km/h 41 % 0.0 mm
20:44 8.8 °C -4.1 °C 1014.8 hPa West 1.9 km/h   40 % 0.0 mm
20:49 8.7 °C -4.5 °C 1014.8 hPa Calm     39 % 0.0 mm
20:54 8.5 °C -5.1 °C 1014.8 hPa NNE 1.9 km/h   38 % 0.0 mm
20:59 8.4 °C -5.1 °C 1014.8 hPa Calm     38 % 0.0 mm
21:04 8.3 °C -5.9 °C 1014.8 hPa Calm     36 % 0.0 mm
21:09 8.2 °C -5.7 °C 1014.8 hPa Calm     37 % 0.0 mm
21:14 7.9 °C -5.6 °C 1014.8 hPa WSW 3.7 km/h 3.7 km/h 38 % 0.0 mm
21:19 7.6 °C -5.8 °C 1015.8 hPa WSW 3.9 km/h   38 % 0.0 mm
21:24 7.5 °C -6.3 °C 1015.8 hPa WSW 3.5 km/h 3.5 km/h 37 % 0.0 mm
21:29 7.5 °C -6.6 °C 1015.8 hPa Calm     36 % 0.0 mm
21:34 7.5 °C -7.0 °C 1015.8 hPa WNW 1.9 km/h   35 % 0.0 mm
21:39 7.4 °C -7.1 °C 1015.8 hPa West 3.7 km/h 3.7 km/h 35 % 0.0 mm
21:44 7.3 °C -7.2 °C 1015.8 hPa SW 3.7 km/h 3.7 km/h 35 % 0.0 mm
21:49 7.2 °C -7.7 °C 1014.8 hPa WSW 3.7 km/h   34 % 0.0 mm
21:54 7.2 °C -7.7 °C 1014.8 hPa NNE 3.7 km/h 3.7 km/h 34 % 0.0 mm
21:59 7.7 °C -7.2 °C 1014.8 hPa SW 7.4 km/h 7.4 km/h 34 % 0.0 mm
22:04 7.5 °C -7.4 °C 1015.8 hPa WSW 3.7 km/h 3.7 km/h 34 % 0.0 mm
22:09 7.0 °C -7.8 °C 1015.8 hPa West 3.9 km/h 3.9 km/h 34 % 0.0 mm
22:14 6.8 °C -8.0 °C 1015.8 hPa North 3.2 km/h 3.2 km/h 34 % 0.0 mm
22:19 7.1 °C -8.1 °C 1015.8 hPa WNW 3.7 km/h 3.7 km/h 33 % 0.0 mm
22:24 7.1 °C -7.7 °C 1015.8 hPa WSW 6.1 km/h 6.1 km/h 34 % 0.0 mm
22:29 6.9 °C -8.3 °C 1015.8 hPa SW 5.6 km/h 5.6 km/h 33 % 0.0 mm
22:34 6.7 °C -8.4 °C 1016.8 hPa NNE 3.2 km/h   33 % 0.0 mm
22:39 6.6 °C -8.6 °C 1016.8 hPa NE 3.7 km/h 3.7 km/h 33 % 0.0 mm
22:44 6.9 °C -8.7 °C 1016.8 hPa NNW 3.7 km/h 3.7 km/h 32 % 0.0 mm
22:49 7.1 °C -8.5 °C 1016.8 hPa WNW 3.7 km/h 3.7 km/h 32 % 0.0 mm
22:54 7.0 °C -8.6 °C 1016.8 hPa SW 3.7 km/h 3.7 km/h 32 % 0.0 mm
22:59 6.6 °C -8.6 °C 1016.8 hPa SW 5.6 km/h 5.6 km/h 33 % 0.0 mm
23:04 6.0 °C -9.5 °C 1017.8 hPa SSW 9.3 km/h 9.3 km/h 32 % 0.0 mm
23:09 5.7 °C -9.7 °C 1017.8 hPa SW 4.2 km/h 4.2 km/h 32 % 0.0 mm
Meteo Sesrovires
Elogis d' Weather Underground - 3.25 mb

Guio original per  Jim McMurry - jmcmurry@mwt.net Adaptat per a la plantilla per  Wim van der Kuil - Leuven-Template.eu

Trobareu la nostra informacio del temps tambe a:

Weather Underground

AWEKAS